Time;durP1;ratioP1;P1;durP2;ratioP2;P2;SDS_P1;SDS_P2;PMS_P1;PMS_P2;Temp;Humidity;BMP_temperature;BMP_pressure;BME280_temperature;BME280_humidity;BME280_pressure;Samples;Min_cycle;Max_cycle;Signal;HPM_P1;HPM_P2
2023/12/31 00:02:25;;;;;;;6.75;3.40;;;;;;;7.10;100.00;100335.00;5017463;28;20045;-74
2023/12/31 00:05:10;;;;;;;4.72;3.10;;;;;;;7.13;100.00;100331.41;5022402;28;20037;-74
2023/12/31 00:07:56;;;;;;;5.30;3.20;;;;;;;7.16;100.00;100326.88;4981664;28;1165185;-73
2023/12/31 00:10:42;;;;;;;8.52;3.13;;;;;;;7.17;100.00;100306.66;5021325;28;20049;-74
2023/12/31 00:13:27;;;;;;;4.82;3.20;;;;;;;7.20;100.00;100302.13;5020244;28;20103;-74
2023/12/31 00:16:14;;;;;;;4.80;3.08;;;;;;;7.24;100.00;100307.28;5022562;28;20146;-73
2023/12/31 00:19:00;;;;;;;5.18;2.97;;;;;;;7.25;100.00;100303.72;5021592;28;20041;-74
2023/12/31 00:21:45;;;;;;;5.70;2.92;;;;;;;7.26;100.00;100298.41;5018426;28;20555;-74
2023/12/31 00:24:31;;;;;;;5.85;3.20;;;;;;;7.24;100.00;100286.22;5019423;28;21067;-74
2023/12/31 00:27:17;;;;;;;4.65;3.33;;;;;;;7.23;100.00;100289.75;5018039;28;20046;-74
2023/12/31 00:30:03;;;;;;;4.53;3.42;;;;;;;7.22;100.00;100281.00;5018763;28;21604;-73
2023/12/31 00:32:49;;;;;;;5.88;3.05;;;;;;;7.20;100.00;100277.56;5015218;28;20052;-73
2023/12/31 00:35:35;;;;;;;4.22;3.10;;;;;;;7.19;100.00;100281.09;5005702;28;20093;-74
2023/12/31 00:38:20;;;;;;;5.22;2.78;;;;;;;7.17;100.00;100268.03;5018885;28;20050;-74
2023/12/31 00:41:06;;;;;;;5.28;2.85;;;;;;;7.16;100.00;100262.81;5021155;28;20844;-74
2023/12/31 00:43:52;;;;;;;5.25;2.60;;;;;;;7.14;100.00;100257.59;5019588;28;20511;-74
2023/12/31 00:46:38;;;;;;;3.90;2.70;;;;;;;7.13;100.00;100260.31;5018637;28;20041;-73
2023/12/31 00:49:23;;;;;;;4.60;3.03;;;;;;;7.13;100.00;100261.16;5018296;28;20049;-73
2023/12/31 00:52:09;;;;;;;4.10;2.80;;;;;;;7.14;100.00;100251.50;5021472;28;20038;-74
2023/12/31 00:54:55;;;;;;;5.45;2.83;;;;;;;7.12;100.00;100243.66;5018450;28;20516;-74
2023/12/31 00:57:40;;;;;;;4.00;2.83;;;;;;;7.11;100.00;100241.06;5017432;28;20331;-74
2023/12/31 01:00:26;;;;;;;4.60;3.28;;;;;;;7.10;100.00;100227.06;5019981;28;20108;-73
2023/12/31 01:03:12;;;;;;;5.50;2.88;;;;;;;7.09;100.00;100228.00;5033383;28;20484;-73
2023/12/31 01:06:07;;;;;;;4.60;2.88;;;;;;;7.06;100.00;100217.56;5020269;28;20619;-75
2023/12/31 01:08:54;;;;;;;4.07;2.90;;;;;;;7.05;100.00;100215.88;5016830;28;20072;-74
2023/12/31 01:11:40;;;;;;;4.57;2.70;;;;;;;7.04;100.00;100201.84;5017052;28;20041;-74
2023/12/31 01:14:26;;;;;;;5.07;2.85;;;;;;;7.06;100.00;100199.16;5011959;28;20046;-74
2023/12/31 01:17:11;;;;;;;3.90;2.72;;;;;;;7.07;100.00;100191.19;5009624;28;20049;-74
2023/12/31 01:19:57;;;;;;;3.05;2.47;;;;;;;7.09;100.00;100193.78;5011598;28;20045;-74
2023/12/31 01:22:43;;;;;;;3.40;2.30;;;;;;;7.09;100.00;100183.25;5011716;28;20041;-74
2023/12/31 01:25:29;;;;;;;3.15;2.28;;;;;;;7.06;100.00;100171.06;5015682;28;20045;-74
2023/12/31 01:28:14;;;;;;;3.55;2.58;;;;;;;7.05;100.00;100179.00;5017805;28;20052;-74
2023/12/31 01:31:00;;;;;;;2.90;2.33;;;;;;;7.03;100.00;100165.91;5014179;28;20053;-74
2023/12/31 01:33:46;;;;;;;3.25;2.33;;;;;;;7.00;100.00;100159.91;5027186;28;20034;-74
2023/12/31 01:36:31;;;;;;;5.57;2.53;;;;;;;6.97;100.00;100158.25;5005514;28;20515;-74
2023/12/31 01:39:17;;;;;;;3.97;2.15;;;;;;;6.95;100.00;100160.13;5007629;28;20164;-74
2023/12/31 01:42:03;;;;;;;3.50;2.40;;;;;;;6.93;100.00;100160.16;5006178;28;20037;-74
2023/12/31 01:44:49;;;;;;;4.18;2.10;;;;;;;6.91;100.00;100151.50;5008065;28;20076;-74
2023/12/31 01:47:36;;;;;;;3.50;2.00;;;;;;;6.91;100.00;100158.50;5008614;28;20041;-74
2023/12/31 01:50:23;;;;;;;3.75;2.33;;;;;;;6.90;100.00;100160.31;5008066;28;20053;-74
2023/12/31 01:53:09;;;;;;;2.42;1.90;;;;;;;6.90;100.00;100156.81;5006162;28;20037;-74
2023/12/31 01:55:55;;;;;;;2.60;1.77;;;;;;;6.88;100.00;100154.25;5009494;28;20046;-74
2023/12/31 01:58:41;;;;;;;3.20;2.20;;;;;;;6.86;100.00;100148.19;5006289;28;20049;-74
2023/12/31 02:01:27;;;;;;;3.05;2.30;;;;;;;6.85;100.00;100140.34;4989512;28;20071;-74
2023/12/31 02:04:13;;;;;;;4.45;2.10;;;;;;;6.84;100.00;100134.25;5002121;28;20918;-74
2023/12/31 02:07:00;;;;;;;1.88;1.67;;;;;;;6.83;100.00;100134.28;5006456;28;20506;-74
2023/12/31 02:09:45;;;;;;;2.65;1.90;;;;;;;6.81;100.00;100123.81;5010460;28;20056;-74
2023/12/31 02:12:31;;;;;;;3.38;2.00;;;;;;;6.81;100.00;100123.00;5010510;28;20057;-74
2023/12/31 02:15:34;;;;;;;2.95;1.90;;;;;;;6.77;100.00;100109.94;5005705;28;20147;-74
2023/12/31 02:18:20;;;;;;;3.60;2.10;;;;;;;6.74;100.00;100104.81;5008372;28;21510;-74
2023/12/31 02:21:06;;;;;;;3.05;1.83;;;;;;;6.74;100.00;100099.56;4992676;28;20563;-74
2023/12/31 02:23:52;;;;;;;3.67;1.70;;;;;;;6.73;100.00;100091.72;5008611;28;20029;-74
2023/12/31 02:26:38;;;;;;;3.15;1.70;;;;;;;6.71;100.00;100088.31;5004389;28;20103;-74
2023/12/31 02:29:23;;;;;;;4.63;1.90;;;;;;;6.70;100.00;100074.28;5003006;28;20156;-74
2023/12/31 02:32:09;;;;;;;2.83;1.92;;;;;;;6.70;100.00;100076.91;5004247;28;20045;-74
2023/12/31 02:34:55;;;;;;;1.98;1.65;;;;;;;6.70;100.00;100073.44;5004787;28;20041;-74
2023/12/31 02:37:41;;;;;;;1.98;1.60;;;;;;;6.68;100.00;100070.88;5004902;28;21982;-74
2023/12/31 02:40:26;;;;;;;2.00;1.50;;;;;;;6.67;100.00;100063.91;5016077;28;20052;-74
2023/12/31 02:43:12;;;;;;;4.22;1.80;;;;;;;6.66;100.00;100060.41;5005956;28;20092;-74
2023/12/31 02:45:58;;;;;;;2.83;1.88;;;;;;;6.65;100.00;100052.59;5010893;28;20135;-74
2023/12/31 02:48:43;;;;;;;2.30;1.65;;;;;;;6.61;100.00;100041.34;5011418;28;20041;-74
2023/12/31 02:51:30;;;;;;;2.03;1.50;;;;;;;6.63;100.00;100030.75;5008756;28;20124;-74
2023/12/31 02:54:15;;;;;;;2.65;1.70;;;;;;;6.61;100.00;100030.84;5004585;28;20485;-74
2023/12/31 02:57:01;;;;;;;3.53;1.77;;;;;;;6.60;100.00;100015.09;5000918;28;20068;-74
2023/12/31 02:59:47;;;;;;;4.28;1.88;;;;;;;6.59;100.00;100019.50;5004714;28;20045;-74
2023/12/31 03:02:33;;;;;;;4.05;1.73;;;;;;;6.57;100.00;100016.09;5010002;28;20069;-75
2023/12/31 03:05:18;;;;;;;2.28;1.60;;;;;;;6.56;100.00;100009.13;5010276;28;20799;-74
2023/12/31 03:08:05;;;;;;;2.30;1.70;;;;;;;6.55;100.00;100007.41;5012011;28;20205;-74
2023/12/31 03:10:50;;;;;;;1.60;1.50;;;;;;;6.53;100.00;100001.34;5007871;28;20045;-74
2023/12/31 03:13:36;;;;;;;4.55;1.60;;;;;;;6.52;100.00;100002.28;5008831;28;20057;-74
2023/12/31 03:16:24;;;;;;;4.38;1.83;;;;;;;6.52;100.00;100004.91;5011051;28;21963;-74
2023/12/31 03:19:14;;;;;;;2.80;1.80;;;;;;;6.52;100.00;99986.50;5009457;28;20499;-74
2023/12/31 03:21:59;;;;;;;2.92;1.50;;;;;;;6.52;100.00;99992.63;4993246;28;20053;-74
2023/12/31 03:24:45;;;;;;;2.83;1.50;;;;;;;6.53;100.00;99988.19;5009889;28;20211;-74
2023/12/31 03:27:31;;;;;;;3.60;1.55;;;;;;;6.53;100.00;99975.03;5008808;28;20037;-74
2023/12/31 03:30:17;;;;;;;2.03;1.40;;;;;;;6.55;100.00;99975.00;5006491;28;20084;-74
2023/12/31 03:33:03;;;;;;;2.63;1.38;;;;;;;6.56;100.00;99972.31;5007461;28;20139;-74
2023/12/31 03:35:49;;;;;;;3.08;1.30;;;;;;;6.58;100.00;99957.31;5008059;28;20057;-74
2023/12/31 03:38:35;;;;;;;1.60;1.40;;;;;;;6.61;100.00;99954.56;5007271;28;20460;-74
2023/12/31 03:41:20;;;;;;;3.13;1.58;;;;;;;6.63;100.00;99938.69;5008680;28;20053;-74
2023/12/31 03:44:06;;;;;;;3.53;1.70;;;;;;;6.65;100.00;99929.81;4984836;28;20046;-74
2023/12/31 03:46:52;;;;;;;2.95;1.58;;;;;;;6.66;100.00;99931.50;5013754;28;20041;-74
2023/12/31 03:49:38;;;;;;;1.77;1.55;;;;;;;6.67;100.00;99927.13;5011456;28;20053;-74
2023/12/31 03:52:23;;;;;;;1.67;1.30;;;;;;;6.69;100.00;99913.91;5013374;28;20046;-74
2023/12/31 03:55:09;;;;;;;1.33;1.10;;;;;;;6.69;100.00;99917.38;5010059;28;20055;-74
2023/12/31 03:57:55;;;;;;;1.75;1.35;;;;;;;6.70;100.00;99889.31;5008221;28;20059;-74
2023/12/31 04:00:40;;;;;;;3.40;1.80;;;;;;;6.70;100.00;99887.50;5009527;28;20070;-74
2023/12/31 04:03:26;;;;;;;2.42;1.20;;;;;;;6.71;100.00;99889.22;5010975;28;20060;-75
2023/12/31 04:06:12;;;;;;;1.20;1.10;;;;;;;6.73;100.00;99870.75;5008635;28;20050;-74
2023/12/31 04:08:57;;;;;;;4.32;1.38;;;;;;;6.75;100.00;99876.81;5006044;28;20046;-74
2023/12/31 04:11:43;;;;;;;1.90;1.13;;;;;;;6.77;100.00;99877.59;5007475;28;20664;-74
2023/12/31 04:14:29;;;;;;;1.60;1.33;;;;;;;6.76;100.00;99863.56;5008322;28;20050;-74
2023/12/31 04:17:15;;;;;;;2.20;1.33;;;;;;;6.73;100.00;99849.69;5010308;28;20049;-74
2023/12/31 04:20:01;;;;;;;3.30;1.40;;;;;;;6.73;100.00;99844.44;5011665;28;20247;-74
2023/12/31 04:22:47;;;;;;;2.20;1.67;;;;;;;6.73;100.00;99839.19;5009206;28;20033;-74
2023/12/31 04:25:32;;;;;;;1.80;1.40;;;;;;;6.72;100.00;99834.84;5006780;28;20038;-74
2023/12/31 04:28:18;;;;;;;3.05;1.40;;;;;;;6.72;100.00;99837.47;5010596;28;20492;-74
2023/12/31 04:31:04;;;;;;;1.40;1.30;;;;;;;6.73;100.00;99823.38;5010093;28;20994;-74
2023/12/31 04:33:50;;;;;;;3.83;1.40;;;;;;;6.74;100.00;99823.31;5008455;28;20045;-74
2023/12/31 04:36:35;;;;;;;1.90;1.23;;;;;;;6.73;100.00;99818.13;5007968;28;20096;-74
2023/12/31 04:39:21;;;;;;;2.28;1.35;;;;;;;6.73;100.00;99811.09;5005405;28;20681;-74
2023/12/31 04:42:07;;;;;;;2.08;1.33;;;;;;;6.74;100.00;99809.31;5011476;28;20133;-74
2023/12/31 04:44:53;;;;;;;1.65;1.55;;;;;;;6.73;100.00;99807.59;5005810;28;20571;-74
2023/12/31 04:47:38;;;;;;;2.85;1.48;;;;;;;6.73;100.00;99799.72;5007706;28;20049;-74
2023/12/31 04:50:24;;;;;;;3.78;1.40;;;;;;;6.74;100.00;99796.16;5010496;28;20049;-74
2023/12/31 04:53:10;;;;;;;2.10;1.40;;;;;;;6.74;100.00;99780.38;5008437;28;21004;-74
2023/12/31 04:55:55;;;;;;;3.28;1.67;;;;;;;6.73;100.00;99774.28;5008874;28;20041;-74
2023/12/31 04:58:41;;;;;;;2.10;1.73;;;;;;;6.73;100.00;99770.78;5008696;28;20106;-74
2023/12/31 05:01:31;;;;;;;3.63;1.50;;;;;;;6.74;100.00;99756.69;5007369;28;20428;-74
2023/12/31 05:04:18;;;;;;;2.38;1.50;;;;;;;6.75;100.00;99755.81;5010639;28;20077;-74
2023/12/31 05:07:05;;;;;;;3.05;1.50;;;;;;;6.75;100.00;99755.81;5010079;28;20787;-74
2023/12/31 05:09:51;;;;;;;2.65;1.80;;;;;;;6.77;100.00;99743.41;5009294;28;20060;-74
2023/12/31 05:12:36;;;;;;;2.05;1.48;;;;;;;6.74;100.00;99733.88;5002090;28;20072;-75
2023/12/31 05:15:22;;;;;;;2.17;1.52;;;;;;;6.76;100.00;99736.44;5007308;28;20673;-74
2023/12/31 05:18:08;;;;;;;2.20;1.70;;;;;;;6.75;100.00;99724.22;5010652;28;20864;-74
2023/12/31 05:20:54;;;;;;;3.90;2.20;;;;;;;6.75;100.00;99713.72;5006440;28;20538;-74
2023/12/31 05:23:39;;;;;;;1.60;1.50;;;;;;;6.77;100.00;99703.94;5007934;28;20726;-74
2023/12/31 05:26:25;;;;;;;3.13;1.60;;;;;;;6.77;100.00;99701.31;5007591;28;20068;-74
2023/12/31 05:29:12;;;;;;;2.17;1.60;;;;;;;6.78;100.00;99703.88;5009392;28;20068;-73
2023/12/31 05:31:58;;;;;;;2.22;1.48;;;;;;;6.78;100.00;99692.50;5008873;28;20207;-74
2023/12/31 05:34:46;;;;;;;2.83;1.48;;;;;;;6.78;100.00;99690.75;5009604;28;20049;-75
2023/12/31 05:37:32;;;;;;;1.85;1.50;;;;;;;6.80;100.00;99693.28;5008052;28;20050;-75
2023/12/31 05:40:18;;;;;;;1.83;1.30;;;;;;;6.81;100.00;99688.88;5008319;28;20052;-74
2023/12/31 05:43:04;;;;;;;2.08;1.40;;;;;;;6.82;100.00;99683.53;5007387;28;20037;-74
2023/12/31 05:45:50;;;;;;;1.73;1.33;;;;;;;6.84;100.00;99678.19;5010301;28;20073;-74
2023/12/31 05:48:35;;;;;;;2.17;1.38;;;;;;;6.84;100.00;99681.69;5008715;28;20057;-74
2023/12/31 05:51:21;;;;;;;2.55;1.65;;;;;;;6.86;100.00;99673.72;5005577;28;20045;-75
2023/12/31 05:54:07;;;;;;;2.35;1.33;;;;;;;6.88;100.00;99666.59;5008470;28;20139;-74
2023/12/31 05:56:53;;;;;;;2.45;1.60;;;;;;;6.89;100.00;99656.00;5022287;28;20053;-74
2023/12/31 05:59:38;;;;;;;2.22;1.60;;;;;;;6.91;100.00;99651.50;5009672;28;21566;-74
2023/12/31 06:02:24;;;;;;;1.75;1.40;;;;;;;6.93;100.00;99649.66;5006142;28;20635;-74
2023/12/31 06:05:10;;;;;;;2.67;1.60;;;;;;;6.95;100.00;99651.34;5005343;28;20060;-74
2023/12/31 06:07:56;;;;;;;2.22;1.60;;;;;;;6.96;100.00;99658.34;5006874;28;20057;-75
2023/12/31 06:10:41;;;;;;;2.92;1.60;;;;;;;6.95;100.00;99641.69;5007531;28;20137;-74
2023/12/31 06:13:29;;;;;;;4.22;2.03;;;;;;;6.97;100.00;99641.63;5008164;28;20068;-74
2023/12/31 06:16:15;;;;;;;1.88;1.60;;;;;;;6.99;100.00;99629.22;5004237;28;20078;-75
2023/12/31 06:19:01;;;;;;;1.80;1.42;;;;;;;6.99;100.00;99621.34;5007944;28;20058;-74
2023/12/31 06:21:46;;;;;;;5.63;1.70;;;;;;;7.00;100.00;99615.13;5007131;28;20049;-75
2023/12/31 06:24:32;;;;;;;2.55;1.58;;;;;;;6.98;100.00;99601.22;5004242;28;20033;-74
2023/12/31 06:27:18;;;;;;;2.45;1.80;;;;;;;6.99;100.00;99602.91;5007564;28;20512;-74
2023/12/31 06:30:07;;;;;;;2.78;1.67;;;;;;;7.02;100.00;99605.38;5007726;28;20074;-74
2023/12/31 06:32:53;;;;;;;2.88;1.90;;;;;;;7.04;100.00;99599.09;5007416;28;20056;-74
2023/12/31 06:35:39;;;;;;;2.88;1.67;;;;;;;7.05;100.00;99585.03;5019435;28;20955;-74
2023/12/31 06:38:25;;;;;;;2.25;1.75;;;;;;;7.07;100.00;99592.84;5005564;28;20595;-74
2023/12/31 06:41:11;;;;;;;2.67;2.13;;;;;;;7.11;100.00;99588.28;5004783;28;20041;-75
2023/12/31 06:43:56;;;;;;;2.42;2.03;;;;;;;7.11;100.00;99583.88;5006491;28;20053;-74
2023/12/31 06:46:42;;;;;;;1.88;1.63;;;;;;;7.14;100.00;99573.16;5010115;28;20550;-74
2023/12/31 06:49:28;;;;;;;3.78;2.00;;;;;;;7.17;100.00;99566.91;5007243;28;20273;-75
2023/12/31 06:52:13;;;;;;;2.30;1.85;;;;;;;7.19;100.00;99576.44;5007972;28;20084;-74
2023/12/31 06:54:59;;;;;;;2.65;1.90;;;;;;;7.19;100.00;99558.00;5005960;28;20056;-74
2023/12/31 06:57:47;;;;;;;3.15;2.15;;;;;;;7.23;100.00;99549.97;5006521;28;20404;-74
2023/12/31 07:00:32;;;;;;;3.60;2.45;;;;;;;7.23;100.00;99560.50;5006869;28;20132;-75
2023/12/31 07:03:18;;;;;;;3.35;2.50;;;;;;;7.20;100.00;99549.16;5008994;28;20049;-74
2023/12/31 07:06:04;;;;;;;3.40;2.38;;;;;;;7.20;100.00;99543.91;5019134;28;20136;-74
2023/12/31 07:08:50;;;;;;;3.35;2.50;;;;;;;7.19;100.00;99534.31;5017937;28;20052;-74
2023/12/31 07:11:36;;;;;;;3.40;2.72;;;;;;;7.19;100.00;99536.94;5005397;28;20065;-75
2023/12/31 07:14:23;;;;;;;4.82;2.75;;;;;;;7.18;100.00;99523.84;5008564;28;20033;-75
2023/12/31 07:17:09;;;;;;;4.63;2.72;;;;;;;7.18;100.00;99518.59;4993792;28;20604;-74
2023/12/31 07:19:55;;;;;;;4.28;2.70;;;;;;;7.18;100.00;99514.19;5006692;28;20407;-75
2023/12/31 07:22:40;;;;;;;4.68;2.78;;;;;;;7.17;100.00;99525.66;5004879;28;20593;-74
2023/12/31 07:25:28;;;;;;;5.18;2.75;;;;;;;7.17;100.00;99516.88;5004883;28;21060;-75
2023/12/31 07:28:14;;;;;;;3.75;3.08;;;;;;;7.17;100.00;99519.53;5006684;28;20676;-74
2023/12/31 07:31:00;;;;;;;4.10;2.85;;;;;;;7.17;100.00;99503.72;5002036;28;20033;-74
2023/12/31 07:33:45;;;;;;;4.50;2.75;;;;;;;7.18;100.00;99495.75;4993468;28;20068;-75
2023/12/31 07:36:31;;;;;;;6.90;3.00;;;;;;;7.17;100.00;99486.16;5006860;28;20045;-74
2023/12/31 07:39:17;;;;;;;4.82;2.53;;;;;;;7.19;100.00;99505.34;5006427;28;20162;-74
2023/12/31 07:42:06;;;;;;;4.72;2.70;;;;;;;7.22;100.00;99493.81;5005254;28;20519;-75
2023/12/31 07:44:52;;;;;;;3.50;2.70;;;;;;;7.23;100.00;99482.34;5005802;28;20042;-74
2023/12/31 07:47:39;;;;;;;3.35;2.65;;;;;;;7.23;100.00;99494.69;5008325;28;20053;-74
2023/12/31 07:50:24;;;;;;;2.85;2.40;;;;;;;7.24;100.00;99489.31;5007740;28;20046;-74
2023/12/31 07:53:10;;;;;;;2.67;2.40;;;;;;;7.25;100.00;99482.28;5004059;28;20056;-75
2023/12/31 07:55:56;;;;;;;3.63;2.20;;;;;;;7.24;100.00;99488.47;5009584;28;20050;-75
2023/12/31 07:58:42;;;;;;;3.20;2.38;;;;;;;7.25;100.00;99480.47;5008044;28;20124;-75
2023/12/31 08:01:27;;;;;;;2.78;2.22;;;;;;;7.25;100.00;99482.28;5007375;28;20124;-74
2023/12/31 08:04:13;;;;;;;5.30;2.67;;;;;;;7.23;100.00;99487.63;5008258;28;20041;-75
2023/12/31 08:06:59;;;;;;;3.55;2.47;;;;;;;7.20;100.00;99480.72;5008205;28;20085;-74
2023/12/31 08:09:44;;;;;;;2.75;2.25;;;;;;;7.20;100.00;99478.09;5008170;28;20056;-75
2023/12/31 08:12:30;;;;;;;2.45;2.20;;;;;;;7.23;100.00;99479.72;5007803;28;20049;-75
2023/12/31 08:15:16;;;;;;;3.20;2.63;;;;;;;7.22;100.00;99479.78;5007023;28;21857;-74
2023/12/31 08:18:03;;;;;;;5.43;2.40;;;;;;;7.24;100.00;99472.69;5007437;28;20054;-74
2023/12/31 08:20:49;;;;;;;4.53;2.47;;;;;;;7.24;100.00;99473.50;5021868;28;20574;-74
2023/12/31 08:23:34;;;;;;;2.80;2.13;;;;;;;7.24;100.00;99462.97;5007697;28;22023;-75
2023/12/31 08:26:20;;;;;;;4.03;2.65;;;;;;;7.25;100.00;99458.59;5009157;28;20052;-74
2023/12/31 08:29:06;;;;;;;5.18;2.72;;;;;;;7.26;100.00;99447.97;5008483;28;20527;-75
2023/12/31 08:31:52;;;;;;;3.30;2.75;;;;;;;7.30;100.00;99451.28;5009819;28;20064;-74
2023/12/31 08:34:38;;;;;;;4.85;2.63;;;;;;;7.32;100.00;99441.53;5009456;28;21717;-74
2023/12/31 08:37:24;;;;;;;4.55;2.75;;;;;;;7.33;100.00;99440.56;4991539;28;20085;-74
2023/12/31 08:40:10;;;;;;;4.63;3.17;;;;;;;7.34;100.00;99443.13;5006150;28;20054;-74
2023/12/31 08:42:57;;;;;;;3.63;2.33;;;;;;;7.36;100.00;99448.31;5007377;28;20046;-74
2023/12/31 08:45:43;;;;;;;3.45;2.28;;;;;;;7.37;100.00;99426.31;5007307;28;20037;-74
2023/12/31 08:48:29;;;;;;;3.10;2.45;;;;;;;7.40;100.00;99420.03;5007153;28;20160;-74
2023/12/31 08:51:14;;;;;;;3.90;2.55;;;;;;;7.39;100.00;99429.72;5005845;28;20067;-74
2023/12/31 08:54:00;;;;;;;5.10;2.65;;;;;;;7.42;100.00;99424.28;5005903;28;20041;-75
2023/12/31 08:56:46;;;;;;;3.80;2.50;;;;;;;7.41;100.00;99427.84;5009116;28;20053;-74
2023/12/31 08:59:31;;;;;;;3.45;2.35;;;;;;;7.42;100.00;99419.00;5007115;28;20049;-73
2023/12/31 09:02:17;;;;;;;4.60;2.47;;;;;;;7.43;100.00;99407.56;5005670;28;20057;-72
2023/12/31 09:05:04;;;;;;;3.08;2.22;;;;;;;7.43;100.00;99409.34;5006255;28;20049;-72
2023/12/31 09:07:50;;;;;;;4.88;2.47;;;;;;;7.43;100.00;99414.59;5007116;28;20057;-73
2023/12/31 09:10:36;;;;;;;4.07;2.45;;;;;;;7.41;100.00;99403.31;5006536;28;21459;-73
2023/12/31 09:13:25;;;;;;;3.70;2.33;;;;;;;7.39;100.00;99410.41;5006307;28;20454;-73
2023/12/31 09:16:10;;;;;;;5.68;2.75;;;;;;;7.37;100.00;99405.25;5007583;28;20484;-73
2023/12/31 09:18:56;;;;;;;4.28;2.80;;;;;;;7.34;100.00;99401.00;5008087;28;20416;-74
2023/12/31 09:21:42;;;;;;;6.13;3.28;;;;;;;7.32;100.00;99396.75;5007093;28;20121;-73
2023/12/31 09:24:28;;;;;;;4.82;2.78;;;;;;;7.31;100.00;99405.59;4992035;28;20476;-73
2023/12/31 09:27:14;;;;;;;4.72;3.05;;;;;;;7.27;100.00;99398.78;5007761;28;20045;-73
2023/12/31 09:30:00;;;;;;;3.92;2.80;;;;;;;7.25;100.00;99390.13;5007301;28;20049;-73
2023/12/31 09:32:45;;;;;;;4.47;3.05;;;;;;;7.23;100.00;99382.31;5007000;28;20045;-73
2023/12/31 09:35:31;;;;;;;5.50;3.40;;;;;;;7.22;100.00;99379.75;5006677;28;20045;-74
2023/12/31 09:38:17;;;;;;;4.82;2.67;;;;;;;7.22;100.00;99382.38;5007182;28;20049;-73
2023/12/31 09:41:05;;;;;;;4.57;2.30;;;;;;;7.21;100.00;99376.28;5007862;28;20107;-73
2023/12/31 09:43:52;;;;;;;4.68;3.20;;;;;;;7.22;100.00;99370.09;5008619;28;20049;-73
2023/12/31 09:46:38;;;;;;;3.95;2.83;;;;;;;7.24;100.00;99375.28;5008095;28;20510;-73
2023/12/31 09:49:24;;;;;;;4.80;2.85;;;;;;;7.25;100.00;99356.75;5017317;28;20053;-73
2023/12/31 09:52:10;;;;;;;3.95;2.70;;;;;;;7.28;100.00;99353.97;5006661;28;20069;-73
2023/12/31 09:54:57;;;;;;;5.43;2.92;;;;;;;7.32;100.00;99352.00;5004941;28;20042;-73
2023/12/31 09:57:43;;;;;;;5.70;3.17;;;;;;;7.34;100.00;99347.50;5008520;28;20084;-73
2023/12/31 10:00:29;;;;;;;4.80;3.10;;;;;;;7.36;100.00;99343.00;4986634;28;20041;-74
2023/12/31 10:03:15;;;;;;;4.45;2.70;;;;;;;7.40;100.00;99333.16;4995674;28;20046;-72
2023/12/31 10:06:02;;;;;;;4.45;3.08;;;;;;;7.44;100.00;99327.63;4999435;28;20037;-72
2023/12/31 10:08:48;;;;;;;6.63;3.28;;;;;;;7.48;100.00;99326.50;4997121;28;20479;-73
2023/12/31 10:11:34;;;;;;;6.32;3.22;;;;;;;7.50;100.00;99320.28;4986913;28;20046;-73
2023/12/31 10:14:20;;;;;;;5.15;3.08;;;;;;;7.52;100.00;99315.81;4999110;28;20081;-72
2023/12/31 10:17:07;;;;;;;5.47;2.97;;;;;;;7.55;100.00;99310.34;4980140;28;20118;-73
2023/12/31 10:19:53;;;;;;;6.60;3.50;;;;;;;7.57;100.00;99303.22;4996525;28;20052;-72
2023/12/31 10:22:41;;;;;;;6.32;3.50;;;;;;;7.60;100.00;99292.50;4997494;28;20542;-72
2023/12/31 10:25:28;;;;;;;4.15;3.25;;;;;;;7.63;100.00;99304.66;5011364;28;20151;-72
2023/12/31 10:28:14;;;;;;;5.72;3.33;;;;;;;7.68;100.00;99306.06;4999260;28;20044;-73
2023/12/31 10:30:59;;;;;;;4.13;3.03;;;;;;;7.69;100.00;99299.03;4982518;28;20042;-73
2023/12/31 10:33:45;;;;;;;4.97;3.17;;;;;;;7.71;100.00;99291.88;4999389;28;20041;-73
2023/12/31 10:36:31;;;;;;;4.10;2.90;;;;;;;7.71;100.00;99294.50;4998489;28;20049;-72
2023/12/31 10:39:27;;;;;;;4.93;2.70;;;;;;;7.68;100.00;99292.06;4996725;28;20057;-74
2023/12/31 10:42:13;;;;;;;5.03;3.20;;;;;;;7.67;100.00;99300.91;4996565;28;20041;-73
2023/12/31 10:44:59;;;;;;;4.35;3.30;;;;;;;7.63;100.00;99315.19;4995707;28;20056;-72
2023/12/31 10:47:48;;;;;;;5.55;3.20;;;;;;;7.56;100.00;99360.31;4998395;28;20045;-72
2023/12/31 10:50:37;;;;;;;3.35;2.00;;;;;;;7.46;100.00;99357.34;4997050;28;20077;-72
2023/12/31 10:53:24;;;;;;;2.10;1.10;;;;;;;7.28;100.00;99346.06;5000613;28;20800;-72
2023/12/31 10:56:11;;;;;;;1.63;1.30;;;;;;;7.13;100.00;99353.00;5010778;28;20164;-72
2023/12/31 10:58:58;;;;;;;1.00;0.90;;;;;;;7.01;100.00;99338.75;5000559;28;20037;-71
2023/12/31 11:01:44;;;;;;;2.28;1.30;;;;;;;6.91;100.00;99337.53;4996116;28;20061;-72
2023/12/31 11:04:31;;;;;;;1.38;1.00;;;;;;;6.82;100.00;99345.94;4999355;28;20042;-71
2023/12/31 11:07:18;;;;;;;0.90;0.90;;;;;;;6.74;100.00;99347.19;4999948;28;21000;-71
2023/12/31 11:10:04;;;;;;;1.80;1.13;;;;;;;6.69;100.00;99349.22;5002077;28;20045;-72
2023/12/31 11:12:51;;;;;;;2.17;1.40;;;;;;;6.64;100.00;99344.22;4999285;28;20056;-72
2023/12/31 11:15:37;;;;;;;6.57;1.17;;;;;;;6.59;100.00;99340.13;4999747;28;20050;-72
2023/12/31 11:18:38;;;;;;;2.65;1.10;;;;;;;6.56;100.00;99341.16;5001394;28;20140;-71
2023/12/31 11:21:37;;;;;;;1.67;0.80;;;;;;;6.52;100.00;99327.31;5001208;28;20128;-71
2023/12/31 11:24:25;;;;;;;2.50;1.40;;;;;;;6.49;100.00;99324.00;4991386;28;20717;-71
2023/12/31 11:27:15;;;;;;;3.60;1.60;;;;;;;6.48;100.00;99319.66;4977567;28;20050;-72
2023/12/31 11:30:02;;;;;;;1.02;1.00;;;;;;;6.45;100.00;99317.19;5000589;28;21001;-72
2023/12/31 11:32:48;;;;;;;1.10;0.80;;;;;;;6.44;100.00;99312.88;5003570;28;20052;-72
2023/12/31 11:35:52;;;;;;;2.28;0.90;;;;;;;6.44;100.00;99318.13;5005371;28;20427;-72
2023/12/31 11:38:58;;;;;;;2.47;1.25;;;;;;;6.50;100.00;99310.75;5005791;28;20112;-72
2023/12/31 11:41:52;;;;;;;1.23;1.08;;;;;;;6.57;100.00;99310.41;5001849;28;20038;-72
2023/12/31 11:44:43;;;;;;;2.47;1.55;;;;;;;6.63;100.00;99305.69;5007237;28;20420;-71
2023/12/31 11:47:32;;;;;;;1.92;1.20;;;;;;;6.71;100.00;99296.53;4997658;28;20642;-72
2023/12/31 11:50:21;;;;;;;1.60;1.20;;;;;;;6.77;100.00;99293.59;5004184;28;20428;-72
2023/12/31 11:53:11;;;;;;;3.13;1.40;;;;;;;6.83;100.00;99290.63;5001686;28;20060;-72
2023/12/31 11:55:58;;;;;;;1.40;1.30;;;;;;;6.88;100.00;99288.59;5003741;28;20873;-71
2023/12/31 11:58:45;;;;;;;2.35;1.10;;;;;;;6.96;100.00;99285.53;5001294;28;20131;-72
2023/12/31 12:01:33;;;;;;;1.20;1.10;;;;;;;7.03;100.00;99286.03;4997929;28;21226;-72
2023/12/31 12:04:19;;;;;;;1.83;1.45;;;;;;;7.08;100.00;99286.63;4998167;28;20045;-72
2023/12/31 12:07:05;;;;;;;1.65;1.30;;;;;;;7.13;100.00;99281.94;5011296;28;20120;-72
2023/12/31 12:09:51;;;;;;;4.10;1.40;;;;;;;7.14;100.00;99277.53;4999992;28;20588;-72
2023/12/31 12:12:36;;;;;;;1.77;1.30;;;;;;;7.11;100.00;99268.03;5000611;28;20045;-72
2023/12/31 12:15:22;;;;;;;2.05;1.60;;;;;;;7.14;100.00;99273.13;4999621;28;20162;-72
2023/12/31 12:18:17;;;;;;;1.55;1.20;;;;;;;7.15;100.00;99274.81;5002945;28;20053;-72
2023/12/31 12:21:03;;;;;;;1.67;1.30;;;;;;;7.16;100.00;99260.75;5000164;28;20033;-72
2023/12/31 12:23:49;;;;;;;2.53;1.80;;;;;;;7.18;100.00;99250.97;4989160;28;20037;-72
2023/12/31 12:26:38;;;;;;;2.63;1.58;;;;;;;7.18;100.00;99250.09;5004420;28;21447;-72
2023/12/31 12:29:26;;;;;;;2.75;1.95;;;;;;;7.15;100.00;99248.50;5002027;28;20279;-73
2023/12/31 12:32:20;;;;;;;2.83;1.60;;;;;;;7.11;100.00;99246.97;5015336;28;20048;-72
2023/12/31 12:35:08;;;;;;;2.00;1.60;;;;;;;7.08;100.00;99241.88;5001912;28;20129;-72
2023/12/31 12:37:54;;;;;;;3.55;2.53;;;;;;;7.05;100.00;99248.19;4985936;28;20057;-72
2023/12/31 12:40:41;;;;;;;4.07;2.85;;;;;;;7.01;100.00;99232.63;5002133;28;20074;-72
2023/12/31 12:43:31;;;;;;;2.85;2.00;;;;;;;7.01;100.00;99230.00;5000472;28;20837;-72
2023/12/31 12:46:17;;;;;;;3.38;1.98;;;;;;;7.00;100.00;99246.72;4998875;28;20042;-72
2023/12/31 12:49:03;;;;;;;4.30;1.52;;;;;;;7.00;100.00;99273.91;5001662;28;20049;-72
2023/12/31 12:51:49;;;;;;;2.20;1.20;;;;;;;7.00;100.00;99308.13;4998578;28;20041;-72
2023/12/31 12:54:36;;;;;;;3.42;1.25;;;;;;;6.83;100.00;99308.19;4997452;28;20072;-72
2023/12/31 12:57:22;;;;;;;1.58;0.88;;;;;;;6.59;100.00;99304.16;4997063;28;20041;-71
2023/12/31 13:00:09;;;;;;;1.35;0.80;;;;;;;6.38;100.00;99301.72;5000287;28;20046;-71
2023/12/31 13:02:55;;;;;;;3.08;0.82;;;;;;;6.19;100.00;99298.38;5000823;28;20065;-71